CheckWX is a tool to help pilots better visualize weather data.  It is not intended as a substitute for an official pre-flight weather briefing.

17:54:57 UTC

KGCY METAR
Greeneville-Greene County Municipal Airport
Greeneville, Tennessee, USA
Current

20 mins ago

KGCY 201735Z AUTO 02006KT 1/4SM FG OVC003 00/M00 A3034 RMK A01
Observed
Feb-20 @ 17:35 UTC
Wind
  • 020° at 6 KTS
Visibility
1/4 SM
Flight Rules
LIFR
Conditions
Fog
Cloud Levels
  • Overcast at 300' AGL
Temperature
C / 32°F
Dewpoint
C / 32°F
Humidity
100%
Altimeter
30.34" Hg
Pressure
1027.42 hPa
Previous

40 mins ago

KGCY 201715Z AUTO 02004KT 1/4SM FG OVC003 00/M00 A3035 RMK A01
Observed
Feb-20 @ 17:15 UTC
Wind
  • 020° at 4 KTS
Visibility
1/4 SM
Flight Rules
LIFR
Conditions
Fog
Cloud Levels
  • Overcast at 300' AGL
Temperature
C / 32°F
Dewpoint
C / 32°F
Humidity
100%
Altimeter
30.35" Hg
Pressure
1027.82 hPa
Previous

60 mins ago

KGCY 201655Z AUTO 36005KT 3/4SM BR OVC005 01/00 A3036 RMK A01 P0001
Observed
Feb-20 @ 16:55 UTC
Wind
  • 360° at 5 KTS
Visibility
3/4 SM
Flight Rules
LIFR
Conditions
Mist
Cloud Levels
  • Overcast at 500' AGL
Temperature
C / 34°F
Dewpoint
C / 32°F
Humidity
93%
Altimeter
30.36" Hg
Pressure
1028.12 hPa
Current Rain
0.01"